sensor_id;sensor_type;location;lat;lon;timestamp;temperature;humidity
20670;DHT22;10494;50.868;4.180;2023-06-24T00:01:24;19.40;99.90
20670;DHT22;10494;50.868;4.180;2023-06-24T00:03:49;19.40;99.90
20670;DHT22;10494;50.868;4.180;2023-06-24T00:06:18;19.40;99.90
20670;DHT22;10494;50.868;4.180;2023-06-24T00:08:48;19.30;99.90
20670;DHT22;10494;50.868;4.180;2023-06-24T00:11:15;19.10;99.90
20670;DHT22;10494;50.868;4.180;2023-06-24T00:13:41;19.00;99.90
20670;DHT22;10494;50.868;4.180;2023-06-24T00:16:08;19.00;99.90
20670;DHT22;10494;50.868;4.180;2023-06-24T00:18:34;18.90;99.90
20670;DHT22;10494;50.868;4.180;2023-06-24T00:21:00;18.90;99.90
20670;DHT22;10494;50.868;4.180;2023-06-24T00:23:30;18.80;99.90
20670;DHT22;10494;50.868;4.180;2023-06-24T00:26:00;18.80;99.90
20670;DHT22;10494;50.868;4.180;2023-06-24T00:28:26;18.70;99.90
20670;DHT22;10494;50.868;4.180;2023-06-24T00:30:52;18.70;99.90
20670;DHT22;10494;50.868;4.180;2023-06-24T00:33:18;18.60;99.90
20670;DHT22;10494;50.868;4.180;2023-06-24T00:35:45;18.60;99.90
20670;DHT22;10494;50.868;4.180;2023-06-24T00:38:11;18.50;99.90
20670;DHT22;10494;50.868;4.180;2023-06-24T00:40:37;18.40;99.90
20670;DHT22;10494;50.868;4.180;2023-06-24T00:43:05;18.20;99.90
20670;DHT22;10494;50.868;4.180;2023-06-24T00:45:31;18.10;99.90
20670;DHT22;10494;50.868;4.180;2023-06-24T00:47:59;18.00;99.90
20670;DHT22;10494;50.868;4.180;2023-06-24T00:50:26;18.00;99.90
20670;DHT22;10494;50.868;4.180;2023-06-24T00:52:52;17.80;99.90
20670;DHT22;10494;50.868;4.180;2023-06-24T00:55:18;17.70;99.90
20670;DHT22;10494;50.868;4.180;2023-06-24T00:57:47;17.60;99.90
20670;DHT22;10494;50.868;4.180;2023-06-24T01:00:21;17.40;99.90
20670;DHT22;10494;50.868;4.180;2023-06-24T01:02:48;17.20;99.90
20670;DHT22;10494;50.868;4.180;2023-06-24T01:05:14;17.10;99.90
20670;DHT22;10494;50.868;4.180;2023-06-24T01:07:41;17.00;99.90
20670;DHT22;10494;50.868;4.180;2023-06-24T01:10:08;17.00;99.90
20670;DHT22;10494;50.868;4.180;2023-06-24T01:12:38;17.00;99.90
20670;DHT22;10494;50.868;4.180;2023-06-24T01:15:08;17.00;99.90
20670;DHT22;10494;50.868;4.180;2023-06-24T01:18:06;17.00;99.90
20670;DHT22;10494;50.868;4.180;2023-06-24T01:20:49;17.00;99.90
20670;DHT22;10494;50.868;4.180;2023-06-24T01:31:48;17.00;99.90
20670;DHT22;10494;50.868;4.180;2023-06-24T01:34:37;16.90;99.90
20670;DHT22;10494;50.868;4.180;2023-06-24T01:37:12;16.80;99.90
20670;DHT22;10494;50.868;4.180;2023-06-24T01:42:21;16.70;99.90
20670;DHT22;10494;50.868;4.180;2023-06-24T01:44:48;16.70;99.90
20670;DHT22;10494;50.868;4.180;2023-06-24T01:47:19;16.60;99.90
20670;DHT22;10494;50.868;4.180;2023-06-24T01:49:47;16.60;99.90
20670;DHT22;10494;50.868;4.180;2023-06-24T01:52:15;16.50;99.90
20670;DHT22;10494;50.868;4.180;2023-06-24T01:54:41;16.50;99.90
20670;DHT22;10494;50.868;4.180;2023-06-24T01:57:09;16.50;99.90
20670;DHT22;10494;50.868;4.180;2023-06-24T01:59:42;16.50;99.90
20670;DHT22;10494;50.868;4.180;2023-06-24T02:02:09;16.40;99.90
20670;DHT22;10494;50.868;4.180;2023-06-24T02:04:36;16.40;99.90
20670;DHT22;10494;50.868;4.180;2023-06-24T02:07:04;16.40;99.90
20670;DHT22;10494;50.868;4.180;2023-06-24T02:09:32;16.30;99.90
20670;DHT22;10494;50.868;4.180;2023-06-24T02:12:01;16.30;99.90
20670;DHT22;10494;50.868;4.180;2023-06-24T02:14:27;16.30;99.90
20670;DHT22;10494;50.868;4.180;2023-06-24T02:16:56;16.30;99.90
20670;DHT22;10494;50.868;4.180;2023-06-24T02:19:25;16.30;99.90
20670;DHT22;10494;50.868;4.180;2023-06-24T02:21:53;16.30;99.90
20670;DHT22;10494;50.868;4.180;2023-06-24T02:24:19;16.20;99.90
20670;DHT22;10494;50.868;4.180;2023-06-24T02:26:46;16.20;99.90
20670;DHT22;10494;50.868;4.180;2023-06-24T02:29:13;16.20;99.90
20670;DHT22;10494;50.868;4.180;2023-06-24T02:31:39;16.20;99.90
20670;DHT22;10494;50.868;4.180;2023-06-24T02:34:05;16.10;99.90
20670;DHT22;10494;50.868;4.180;2023-06-24T02:36:31;16.10;99.90
20670;DHT22;10494;50.868;4.180;2023-06-24T02:38:56;16.10;99.90
20670;DHT22;10494;50.868;4.180;2023-06-24T02:41:22;16.00;99.90
20670;DHT22;10494;50.868;4.180;2023-06-24T02:43:48;16.00;99.90
20670;DHT22;10494;50.868;4.180;2023-06-24T02:46:15;16.00;99.90
20670;DHT22;10494;50.868;4.180;2023-06-24T02:48:41;15.90;99.90
20670;DHT22;10494;50.868;4.180;2023-06-24T02:51:08;15.90;99.90
20670;DHT22;10494;50.868;4.180;2023-06-24T02:53:37;15.90;99.90
20670;DHT22;10494;50.868;4.180;2023-06-24T02:56:04;15.90;99.90
20670;DHT22;10494;50.868;4.180;2023-06-24T02:58:30;15.90;99.90
20670;DHT22;10494;50.868;4.180;2023-06-24T03:01:01;15.90;99.90
20670;DHT22;10494;50.868;4.180;2023-06-24T03:03:28;15.80;99.90
20670;DHT22;10494;50.868;4.180;2023-06-24T03:05:55;15.80;99.90
20670;DHT22;10494;50.868;4.180;2023-06-24T03:08:24;15.80;99.90
20670;DHT22;10494;50.868;4.180;2023-06-24T03:10:56;15.80;99.90
20670;DHT22;10494;50.868;4.180;2023-06-24T03:13:23;15.70;99.90
20670;DHT22;10494;50.868;4.180;2023-06-24T03:15:48;15.70;99.90
20670;DHT22;10494;50.868;4.180;2023-06-24T03:18:15;15.70;99.90
20670;DHT22;10494;50.868;4.180;2023-06-24T03:20:41;15.70;99.90
20670;DHT22;10494;50.868;4.180;2023-06-24T03:23:06;15.70;99.90
20670;DHT22;10494;50.868;4.180;2023-06-24T03:25:33;15.70;99.90
20670;DHT22;10494;50.868;4.180;2023-06-24T03:27:58;15.60;99.90
20670;DHT22;10494;50.868;4.180;2023-06-24T03:30:26;15.60;99.90
20670;DHT22;10494;50.868;4.180;2023-06-24T03:32:52;15.60;99.90
20670;DHT22;10494;50.868;4.180;2023-06-24T03:35:18;15.50;99.90
20670;DHT22;10494;50.868;4.180;2023-06-24T03:37:43;15.50;99.90
20670;DHT22;10494;50.868;4.180;2023-06-24T03:40:09;15.50;99.90
20670;DHT22;10494;50.868;4.180;2023-06-24T03:42:35;15.50;99.90
20670;DHT22;10494;50.868;4.180;2023-06-24T03:45:03;15.50;99.90
20670;DHT22;10494;50.868;4.180;2023-06-24T03:47:29;15.50;99.90
20670;DHT22;10494;50.868;4.180;2023-06-24T03:49:54;15.50;99.90
20670;DHT22;10494;50.868;4.180;2023-06-24T03:52:20;15.50;99.90
20670;DHT22;10494;50.868;4.180;2023-06-24T03:54:45;15.50;99.90
20670;DHT22;10494;50.868;4.180;2023-06-24T03:57:12;15.50;99.90
20670;DHT22;10494;50.868;4.180;2023-06-24T03:59:38;15.60;99.90
20670;DHT22;10494;50.868;4.180;2023-06-24T04:02:05;15.60;99.90
20670;DHT22;10494;50.868;4.180;2023-06-24T04:04:36;15.60;99.90
20670;DHT22;10494;50.868;4.180;2023-06-24T04:07:02;15.60;99.90
20670;DHT22;10494;50.868;4.180;2023-06-24T04:09:34;15.70;99.90
20670;DHT22;10494;50.868;4.180;2023-06-24T04:12:01;15.70;99.90
20670;DHT22;10494;50.868;4.180;2023-06-24T04:14:27;15.70;99.90
20670;DHT22;10494;50.868;4.180;2023-06-24T04:16:52;15.80;99.90
20670;DHT22;10494;50.868;4.180;2023-06-24T04:19:18;15.90;99.90
20670;DHT22;10494;50.868;4.180;2023-06-24T04:21:44;15.90;99.90
20670;DHT22;10494;50.868;4.180;2023-06-24T04:24:09;15.90;99.90
20670;DHT22;10494;50.868;4.180;2023-06-24T04:26:35;15.90;99.90
20670;DHT22;10494;50.868;4.180;2023-06-24T04:29:00;15.90;99.90
20670;DHT22;10494;50.868;4.180;2023-06-24T04:31:26;16.00;99.90
20670;DHT22;10494;50.868;4.180;2023-06-24T04:33:53;16.00;99.90
20670;DHT22;10494;50.868;4.180;2023-06-24T04:36:19;16.00;99.90
20670;DHT22;10494;50.868;4.180;2023-06-24T04:38:44;16.00;99.90
20670;DHT22;10494;50.868;4.180;2023-06-24T04:41:10;16.00;99.90
20670;DHT22;10494;50.868;4.180;2023-06-24T04:43:35;16.10;99.90
20670;DHT22;10494;50.868;4.180;2023-06-24T04:46:01;16.30;99.90
20670;DHT22;10494;50.868;4.180;2023-06-24T04:48:27;16.30;99.90
20670;DHT22;10494;50.868;4.180;2023-06-24T04:50:53;16.30;99.90
20670;DHT22;10494;50.868;4.180;2023-06-24T04:53:21;16.40;99.90
20670;DHT22;10494;50.868;4.180;2023-06-24T04:55:47;16.40;99.90
20670;DHT22;10494;50.868;4.180;2023-06-24T04:58:13;16.50;99.90
20670;DHT22;10494;50.868;4.180;2023-06-24T05:00:38;16.50;99.90
20670;DHT22;10494;50.868;4.180;2023-06-24T05:03:04;16.60;99.90
20670;DHT22;10494;50.868;4.180;2023-06-24T05:05:30;16.60;99.90
20670;DHT22;10494;50.868;4.180;2023-06-24T05:07:55;16.70;99.90
20670;DHT22;10494;50.868;4.180;2023-06-24T05:10:21;16.70;99.90
20670;DHT22;10494;50.868;4.180;2023-06-24T05:12:47;16.90;99.90
20670;DHT22;10494;50.868;4.180;2023-06-24T05:15:13;17.00;99.90
20670;DHT22;10494;50.868;4.180;2023-06-24T05:17:39;17.10;99.90
20670;DHT22;10494;50.868;4.180;2023-06-24T05:20:05;17.10;99.90
20670;DHT22;10494;50.868;4.180;2023-06-24T05:22:31;17.20;99.90
20670;DHT22;10494;50.868;4.180;2023-06-24T05:24:57;17.30;99.90
20670;DHT22;10494;50.868;4.180;2023-06-24T05:27:22;17.50;99.90
20670;DHT22;10494;50.868;4.180;2023-06-24T05:29:48;17.50;99.90
20670;DHT22;10494;50.868;4.180;2023-06-24T05:32:14;17.60;99.90
20670;DHT22;10494;50.868;4.180;2023-06-24T05:34:39;17.70;99.90
20670;DHT22;10494;50.868;4.180;2023-06-24T05:37:05;17.80;99.90
20670;DHT22;10494;50.868;4.180;2023-06-24T05:39:31;17.90;99.90
20670;DHT22;10494;50.868;4.180;2023-06-24T05:41:57;17.90;99.90
20670;DHT22;10494;50.868;4.180;2023-06-24T05:44:22;18.00;99.90
20670;DHT22;10494;50.868;4.180;2023-06-24T05:46:48;18.00;99.90
20670;DHT22;10494;50.868;4.180;2023-06-24T05:49:14;18.10;99.90
20670;DHT22;10494;50.868;4.180;2023-06-24T05:51:40;18.20;99.90
20670;DHT22;10494;50.868;4.180;2023-06-24T05:54:06;18.30;99.90
20670;DHT22;10494;50.868;4.180;2023-06-24T05:56:33;18.40;99.90
20670;DHT22;10494;50.868;4.180;2023-06-24T05:58:58;18.30;99.90
20670;DHT22;10494;50.868;4.180;2023-06-24T06:01:24;18.40;99.90
20670;DHT22;10494;50.868;4.180;2023-06-24T06:03:50;18.40;99.90
20670;DHT22;10494;50.868;4.180;2023-06-24T06:06:15;18.60;99.90
20670;DHT22;10494;50.868;4.180;2023-06-24T06:08:41;18.50;99.90
20670;DHT22;10494;50.868;4.180;2023-06-24T06:11:06;18.50;99.90
20670;DHT22;10494;50.868;4.180;2023-06-24T06:13:32;18.60;99.90
20670;DHT22;10494;50.868;4.180;2023-06-24T06:15:58;18.60;99.90
20670;DHT22;10494;50.868;4.180;2023-06-24T06:18:24;18.70;99.90
20670;DHT22;10494;50.868;4.180;2023-06-24T06:20:49;18.80;99.90
20670;DHT22;10494;50.868;4.180;2023-06-24T06:23:16;18.90;99.90
20670;DHT22;10494;50.868;4.180;2023-06-24T06:25:42;18.90;99.90
20670;DHT22;10494;50.868;4.180;2023-06-24T06:28:07;18.90;99.90
20670;DHT22;10494;50.868;4.180;2023-06-24T06:30:33;19.00;99.90
20670;DHT22;10494;50.868;4.180;2023-06-24T06:32:58;19.10;99.90
20670;DHT22;10494;50.868;4.180;2023-06-24T06:35:24;19.20;99.90
20670;DHT22;10494;50.868;4.180;2023-06-24T06:37:49;19.30;99.90
20670;DHT22;10494;50.868;4.180;2023-06-24T06:40:20;19.50;99.90
20670;DHT22;10494;50.868;4.180;2023-06-24T06:42:46;19.70;99.90
20670;DHT22;10494;50.868;4.180;2023-06-24T06:45:11;20.00;99.90
20670;DHT22;10494;50.868;4.180;2023-06-24T06:47:37;20.20;99.90
20670;DHT22;10494;50.868;4.180;2023-06-24T06:50:03;20.40;99.90
20670;DHT22;10494;50.868;4.180;2023-06-24T06:52:28;20.40;99.90
20670;DHT22;10494;50.868;4.180;2023-06-24T06:54:55;20.60;99.90
20670;DHT22;10494;50.868;4.180;2023-06-24T06:57:20;21.10;99.90
20670;DHT22;10494;50.868;4.180;2023-06-24T06:59:46;21.60;99.90
20670;DHT22;10494;50.868;4.180;2023-06-24T07:02:11;22.20;99.90
20670;DHT22;10494;50.868;4.180;2023-06-24T07:04:37;22.80;99.90
20670;DHT22;10494;50.868;4.180;2023-06-24T07:07:03;23.80;99.90
20670;DHT22;10494;50.868;4.180;2023-06-24T07:09:28;24.40;99.90
20670;DHT22;10494;50.868;4.180;2023-06-24T07:11:54;25.70;99.90
20670;DHT22;10494;50.868;4.180;2023-06-24T07:14:19;27.30;99.90
20670;DHT22;10494;50.868;4.180;2023-06-24T07:16:45;28.20;99.90
20670;DHT22;10494;50.868;4.180;2023-06-24T07:19:11;29.50;99.90
20670;DHT22;10494;50.868;4.180;2023-06-24T07:21:37;30.80;97.40
20670;DHT22;10494;50.868;4.180;2023-06-24T07:24:03;31.90;92.50
20670;DHT22;10494;50.868;4.180;2023-06-24T07:26:29;32.50;86.90
20670;DHT22;10494;50.868;4.180;2023-06-24T07:28:58;33.40;79.60
20670;DHT22;10494;50.868;4.180;2023-06-24T07:31:24;33.70;75.30
20670;DHT22;10494;50.868;4.180;2023-06-24T07:33:50;33.70;72.70
20670;DHT22;10494;50.868;4.180;2023-06-24T07:36:17;34.40;69.60
20670;DHT22;10494;50.868;4.180;2023-06-24T07:38:42;35.00;67.60
20670;DHT22;10494;50.868;4.180;2023-06-24T07:41:08;35.40;62.80
20670;DHT22;10494;50.868;4.180;2023-06-24T07:43:34;35.90;61.90
20670;DHT22;10494;50.868;4.180;2023-06-24T07:45:59;36.40;59.60
20670;DHT22;10494;50.868;4.180;2023-06-24T07:48:25;36.80;58.50
20670;DHT22;10494;50.868;4.180;2023-06-24T07:50:50;36.70;56.50
20670;DHT22;10494;50.868;4.180;2023-06-24T07:53:16;36.80;55.80
20670;DHT22;10494;50.868;4.180;2023-06-24T07:55:42;36.80;56.40
20670;DHT22;10494;50.868;4.180;2023-06-24T07:58:07;37.40;54.60
20670;DHT22;10494;50.868;4.180;2023-06-24T08:00:33;38.00;53.20
20670;DHT22;10494;50.868;4.180;2023-06-24T08:02:59;38.00;53.30
20670;DHT22;10494;50.868;4.180;2023-06-24T08:05:25;37.40;53.10
20670;DHT22;10494;50.868;4.180;2023-06-24T08:07:51;37.70;53.20
20670;DHT22;10494;50.868;4.180;2023-06-24T08:10:17;38.00;51.90
20670;DHT22;10494;50.868;4.180;2023-06-24T08:12:43;38.50;50.90
20670;DHT22;10494;50.868;4.180;2023-06-24T08:15:09;39.00;49.80
20670;DHT22;10494;50.868;4.180;2023-06-24T08:17:35;38.70;49.40
20670;DHT22;10494;50.868;4.180;2023-06-24T08:20:02;37.60;50.70
20670;DHT22;10494;50.868;4.180;2023-06-24T08:22:28;38.00;51.10
20670;DHT22;10494;50.868;4.180;2023-06-24T08:24:54;38.40;49.90
20670;DHT22;10494;50.868;4.180;2023-06-24T08:27:19;38.40;50.90
20670;DHT22;10494;50.868;4.180;2023-06-24T08:29:45;37.70;50.30
20670;DHT22;10494;50.868;4.180;2023-06-24T08:32:10;37.50;50.40
20670;DHT22;10494;50.868;4.180;2023-06-24T08:34:36;37.90;49.10
20670;DHT22;10494;50.868;4.180;2023-06-24T08:37:02;37.50;49.20
20670;DHT22;10494;50.868;4.180;2023-06-24T08:39:28;37.10;50.50
20670;DHT22;10494;50.868;4.180;2023-06-24T08:41:53;36.20;52.80
20670;DHT22;10494;50.868;4.180;2023-06-24T08:44:19;36.20;52.10
20670;DHT22;10494;50.868;4.180;2023-06-24T08:46:45;36.50;51.50
20670;DHT22;10494;50.868;4.180;2023-06-24T08:52:03;37.40;52.20
20670;DHT22;10494;50.868;4.180;2023-06-24T08:54:30;37.80;50.00
20670;DHT22;10494;50.868;4.180;2023-06-24T08:56:59;37.90;49.50
20670;DHT22;10494;50.868;4.180;2023-06-24T08:59:27;37.70;48.60
20670;DHT22;10494;50.868;4.180;2023-06-24T09:01:52;38.00;48.80
20670;DHT22;10494;50.868;4.180;2023-06-24T09:04:18;37.90;48.40
20670;DHT22;10494;50.868;4.180;2023-06-24T09:06:44;36.90;49.90
20670;DHT22;10494;50.868;4.180;2023-06-24T09:09:20;36.50;50.10
20670;DHT22;10494;50.868;4.180;2023-06-24T09:11:54;36.30;50.10
20670;DHT22;10494;50.868;4.180;2023-06-24T09:14:20;36.30;50.20
20670;DHT22;10494;50.868;4.180;2023-06-24T09:16:54;36.00;48.80
20670;DHT22;10494;50.868;4.180;2023-06-24T09:19:23;36.40;49.10
20670;DHT22;10494;50.868;4.180;2023-06-24T09:21:50;36.20;49.30
20670;DHT22;10494;50.868;4.180;2023-06-24T09:24:18;36.60;49.20
20670;DHT22;10494;50.868;4.180;2023-06-24T09:26:44;37.00;49.30
20670;DHT22;10494;50.868;4.180;2023-06-24T09:29:15;37.10;49.50
20670;DHT22;10494;50.868;4.180;2023-06-24T09:31:48;37.20;48.00
20670;DHT22;10494;50.868;4.180;2023-06-24T09:34:14;36.50;48.30
20670;DHT22;10494;50.868;4.180;2023-06-24T09:36:51;35.70;50.10
20670;DHT22;10494;50.868;4.180;2023-06-24T09:39:17;35.60;50.30
20670;DHT22;10494;50.868;4.180;2023-06-24T09:41:43;35.80;49.40
20670;DHT22;10494;50.868;4.180;2023-06-24T09:44:11;34.30;50.80
20670;DHT22;10494;50.868;4.180;2023-06-24T09:46:37;34.70;51.40
20670;DHT22;10494;50.868;4.180;2023-06-24T09:49:06;34.30;51.20
20670;DHT22;10494;50.868;4.180;2023-06-24T09:51:38;34.40;51.10
20670;DHT22;10494;50.868;4.180;2023-06-24T09:54:06;34.60;51.30
20670;DHT22;10494;50.868;4.180;2023-06-24T09:56:35;33.90;50.20
20670;DHT22;10494;50.868;4.180;2023-06-24T09:59:05;33.70;51.00
20670;DHT22;10494;50.868;4.180;2023-06-24T10:01:38;33.80;51.80
20670;DHT22;10494;50.868;4.180;2023-06-24T10:04:05;33.90;52.50
20670;DHT22;10494;50.868;4.180;2023-06-24T10:06:34;34.00;51.70
20670;DHT22;10494;50.868;4.180;2023-06-24T10:09:04;33.60;52.20
20670;DHT22;10494;50.868;4.180;2023-06-24T10:11:30;33.20;52.10
20670;DHT22;10494;50.868;4.180;2023-06-24T10:13:56;33.10;51.40
20670;DHT22;10494;50.868;4.180;2023-06-24T10:16:22;32.90;52.50
20670;DHT22;10494;50.868;4.180;2023-06-24T10:18:48;32.60;53.80
20670;DHT22;10494;50.868;4.180;2023-06-24T10:21:15;32.50;54.50
20670;DHT22;10494;50.868;4.180;2023-06-24T10:26:21;32.50;54.20
20670;DHT22;10494;50.868;4.180;2023-06-24T10:37:02;31.10;57.80
20670;DHT22;10494;50.868;4.180;2023-06-24T10:39:56;31.40;57.50
20670;DHT22;10494;50.868;4.180;2023-06-24T10:47:39;30.10;63.80
20670;DHT22;10494;50.868;4.180;2023-06-24T10:50:06;30.00;62.50
20670;DHT22;10494;50.868;4.180;2023-06-24T10:52:34;30.40;60.40
20670;DHT22;10494;50.868;4.180;2023-06-24T10:55:03;30.50;58.40
20670;DHT22;10494;50.868;4.180;2023-06-24T10:57:29;30.40;56.70
20670;DHT22;10494;50.868;4.180;2023-06-24T10:59:56;30.60;60.30
20670;DHT22;10494;50.868;4.180;2023-06-24T11:02:26;30.40;58.50
20670;DHT22;10494;50.868;4.180;2023-06-24T11:04:53;30.20;58.30
20670;DHT22;10494;50.868;4.180;2023-06-24T11:07:21;30.30;59.50
20670;DHT22;10494;50.868;4.180;2023-06-24T11:09:52;30.70;57.50
20670;DHT22;10494;50.868;4.180;2023-06-24T11:12:19;31.20;56.70
20670;DHT22;10494;50.868;4.180;2023-06-24T11:14:45;31.50;56.10
20670;DHT22;10494;50.868;4.180;2023-06-24T11:17:11;31.70;54.20
20670;DHT22;10494;50.868;4.180;2023-06-24T11:19:36;31.40;55.50
20670;DHT22;10494;50.868;4.180;2023-06-24T11:22:06;31.20;57.10
20670;DHT22;10494;50.868;4.180;2023-06-24T11:24:32;31.20;58.10
20670;DHT22;10494;50.868;4.180;2023-06-24T11:26:58;31.10;57.60
20670;DHT22;10494;50.868;4.180;2023-06-24T11:29:24;30.90;56.90
20670;DHT22;10494;50.868;4.180;2023-06-24T11:31:50;29.90;58.30
20670;DHT22;10494;50.868;4.180;2023-06-24T11:34:16;29.60;61.00
20670;DHT22;10494;50.868;4.180;2023-06-24T11:36:42;29.50;63.00
20670;DHT22;10494;50.868;4.180;2023-06-24T11:39:08;29.40;63.70
20670;DHT22;10494;50.868;4.180;2023-06-24T11:41:34;29.30;62.60
20670;DHT22;10494;50.868;4.180;2023-06-24T11:44:00;29.20;64.30
20670;DHT22;10494;50.868;4.180;2023-06-24T11:46:26;29.20;64.70
20670;DHT22;10494;50.868;4.180;2023-06-24T11:48:52;29.20;65.50
20670;DHT22;10494;50.868;4.180;2023-06-24T11:51:18;28.60;65.90
20670;DHT22;10494;50.868;4.180;2023-06-24T11:53:45;28.70;66.10
20670;DHT22;10494;50.868;4.180;2023-06-24T11:56:12;28.90;62.50
20670;DHT22;10494;50.868;4.180;2023-06-24T11:58:38;29.00;63.60
20670;DHT22;10494;50.868;4.180;2023-06-24T12:01:06;29.20;63.80
20670;DHT22;10494;50.868;4.180;2023-06-24T12:03:33;29.30;63.40
20670;DHT22;10494;50.868;4.180;2023-06-24T12:05:59;29.30;63.90
20670;DHT22;10494;50.868;4.180;2023-06-24T12:08:25;29.50;62.00
20670;DHT22;10494;50.868;4.180;2023-06-24T12:10:52;29.50;61.40
20670;DHT22;10494;50.868;4.180;2023-06-24T12:13:18;29.30;62.90
20670;DHT22;10494;50.868;4.180;2023-06-24T12:15:43;29.10;63.70
20670;DHT22;10494;50.868;4.180;2023-06-24T12:18:09;29.30;63.50
20670;DHT22;10494;50.868;4.180;2023-06-24T12:20:35;29.30;63.80
20670;DHT22;10494;50.868;4.180;2023-06-24T12:23:04;29.30;64.70
20670;DHT22;10494;50.868;4.180;2023-06-24T12:25:29;29.30;63.80
20670;DHT22;10494;50.868;4.180;2023-06-24T12:27:55;29.40;63.20
20670;DHT22;10494;50.868;4.180;2023-06-24T12:30:20;29.50;64.80
20670;DHT22;10494;50.868;4.180;2023-06-24T12:32:49;29.70;59.00
20670;DHT22;10494;50.868;4.180;2023-06-24T12:35:15;29.10;56.10
20670;DHT22;10494;50.868;4.180;2023-06-24T12:37:40;28.80;57.70
20670;DHT22;10494;50.868;4.180;2023-06-24T12:40:07;28.40;58.50
20670;DHT22;10494;50.868;4.180;2023-06-24T12:42:32;28.10;58.40
20670;DHT22;10494;50.868;4.180;2023-06-24T12:44:59;28.30;60.60
20670;DHT22;10494;50.868;4.180;2023-06-24T12:47:24;28.70;61.50
20670;DHT22;10494;50.868;4.180;2023-06-24T12:49:50;29.00;62.20
20670;DHT22;10494;50.868;4.180;2023-06-24T12:52:16;29.20;63.30
20670;DHT22;10494;50.868;4.180;2023-06-24T12:54:42;28.50;62.90
20670;DHT22;10494;50.868;4.180;2023-06-24T12:57:07;28.70;64.00
20670;DHT22;10494;50.868;4.180;2023-06-24T12:59:33;28.60;60.10
20670;DHT22;10494;50.868;4.180;2023-06-24T13:01:59;27.90;59.90
20670;DHT22;10494;50.868;4.180;2023-06-24T13:04:24;27.60;61.70
20670;DHT22;10494;50.868;4.180;2023-06-24T13:06:51;27.70;60.10
20670;DHT22;10494;50.868;4.180;2023-06-24T13:09:17;28.20;61.90
20670;DHT22;10494;50.868;4.180;2023-06-24T13:11:43;28.50;59.80
20670;DHT22;10494;50.868;4.180;2023-06-24T13:14:09;28.60;60.00
20670;DHT22;10494;50.868;4.180;2023-06-24T13:16:36;28.90;60.80
20670;DHT22;10494;50.868;4.180;2023-06-24T13:19:02;29.20;60.70
20670;DHT22;10494;50.868;4.180;2023-06-24T13:21:27;29.10;58.80
20670;DHT22;10494;50.868;4.180;2023-06-24T13:23:53;28.20;60.60
20670;DHT22;10494;50.868;4.180;2023-06-24T13:26:18;28.70;60.80
20670;DHT22;10494;50.868;4.180;2023-06-24T13:28:44;28.60;62.70
20670;DHT22;10494;50.868;4.180;2023-06-24T13:31:10;28.60;61.90
20670;DHT22;10494;50.868;4.180;2023-06-24T13:33:36;28.90;61.30
20670;DHT22;10494;50.868;4.180;2023-06-24T13:36:02;29.00;59.40
20670;DHT22;10494;50.868;4.180;2023-06-24T13:38:28;29.20;61.00
20670;DHT22;10494;50.868;4.180;2023-06-24T13:40:53;29.40;59.50
20670;DHT22;10494;50.868;4.180;2023-06-24T13:43:19;29.50;60.30
20670;DHT22;10494;50.868;4.180;2023-06-24T13:45:45;29.50;61.90
20670;DHT22;10494;50.868;4.180;2023-06-24T13:48:10;29.40;58.60
20670;DHT22;10494;50.868;4.180;2023-06-24T13:50:36;29.40;59.30
20670;DHT22;10494;50.868;4.180;2023-06-24T13:53:01;29.50;60.00
20670;DHT22;10494;50.868;4.180;2023-06-24T13:55:27;29.60;60.20
20670;DHT22;10494;50.868;4.180;2023-06-24T13:57:53;29.50;60.80
20670;DHT22;10494;50.868;4.180;2023-06-24T14:00:19;29.20;58.40
20670;DHT22;10494;50.868;4.180;2023-06-24T14:02:45;29.30;61.10
20670;DHT22;10494;50.868;4.180;2023-06-24T14:05:11;29.50;61.70
20670;DHT22;10494;50.868;4.180;2023-06-24T14:07:37;29.70;62.30
20670;DHT22;10494;50.868;4.180;2023-06-24T14:10:02;29.80;60.20
20670;DHT22;10494;50.868;4.180;2023-06-24T14:12:28;29.80;60.60
20670;DHT22;10494;50.868;4.180;2023-06-24T14:14:54;29.80;59.20
20670;DHT22;10494;50.868;4.180;2023-06-24T14:17:19;29.90;59.60
20670;DHT22;10494;50.868;4.180;2023-06-24T14:19:46;29.80;58.40
20670;DHT22;10494;50.868;4.180;2023-06-24T14:22:12;29.70;59.60
20670;DHT22;10494;50.868;4.180;2023-06-24T14:24:37;29.30;56.40
20670;DHT22;10494;50.868;4.180;2023-06-24T14:27:05;29.20;56.90
20670;DHT22;10494;50.868;4.180;2023-06-24T14:29:31;29.40;59.70
20670;DHT22;10494;50.868;4.180;2023-06-24T14:31:57;29.50;59.10
20670;DHT22;10494;50.868;4.180;2023-06-24T14:34:22;29.50;59.20
20670;DHT22;10494;50.868;4.180;2023-06-24T14:36:48;29.10;60.80
20670;DHT22;10494;50.868;4.180;2023-06-24T14:39:15;28.90;59.80
20670;DHT22;10494;50.868;4.180;2023-06-24T14:41:44;29.10;60.30
20670;DHT22;10494;50.868;4.180;2023-06-24T14:44:10;29.10;59.70
20670;DHT22;10494;50.868;4.180;2023-06-24T14:46:35;29.20;59.50
20670;DHT22;10494;50.868;4.180;2023-06-24T14:49:01;29.10;61.50
20670;DHT22;10494;50.868;4.180;2023-06-24T14:51:27;28.80;60.90
20670;DHT22;10494;50.868;4.180;2023-06-24T14:53:53;28.70;63.00
20670;DHT22;10494;50.868;4.180;2023-06-24T14:56:18;28.70;63.00
20670;DHT22;10494;50.868;4.180;2023-06-24T14:58:44;29.00;63.80
20670;DHT22;10494;50.868;4.180;2023-06-24T15:01:09;29.20;61.50
20670;DHT22;10494;50.868;4.180;2023-06-24T15:03:35;29.30;61.70
20670;DHT22;10494;50.868;4.180;2023-06-24T15:06:01;29.50;61.60
20670;DHT22;10494;50.868;4.180;2023-06-24T15:08:26;29.60;61.70
20670;DHT22;10494;50.868;4.180;2023-06-24T15:10:52;29.50;61.90
20670;DHT22;10494;50.868;4.180;2023-06-24T15:13:18;29.70;59.80
20670;DHT22;10494;50.868;4.180;2023-06-24T15:15:44;29.80;59.00
20670;DHT22;10494;50.868;4.180;2023-06-24T15:18:09;29.80;59.20
20670;DHT22;10494;50.868;4.180;2023-06-24T15:20:35;29.70;59.90
20670;DHT22;10494;50.868;4.180;2023-06-24T15:23:00;29.70;58.30
20670;DHT22;10494;50.868;4.180;2023-06-24T15:25:26;29.60;57.10
20670;DHT22;10494;50.868;4.180;2023-06-24T15:27:53;29.40;58.60
20670;DHT22;10494;50.868;4.180;2023-06-24T15:30:18;29.20;58.10
20670;DHT22;10494;50.868;4.180;2023-06-24T15:32:44;29.20;58.80
20670;DHT22;10494;50.868;4.180;2023-06-24T15:35:11;29.20;57.60
20670;DHT22;10494;50.868;4.180;2023-06-24T15:37:37;29.20;57.90
20670;DHT22;10494;50.868;4.180;2023-06-24T15:40:03;29.10;59.20
20670;DHT22;10494;50.868;4.180;2023-06-24T15:42:29;29.10;60.00
20670;DHT22;10494;50.868;4.180;2023-06-24T15:44:55;29.20;59.80
20670;DHT22;10494;50.868;4.180;2023-06-24T15:47:21;29.10;59.30
20670;DHT22;10494;50.868;4.180;2023-06-24T15:49:46;29.20;58.10
20670;DHT22;10494;50.868;4.180;2023-06-24T15:52:12;29.30;58.30
20670;DHT22;10494;50.868;4.180;2023-06-24T15:54:37;29.00;59.00
20670;DHT22;10494;50.868;4.180;2023-06-24T15:57:03;28.80;59.20